sensor_id;sensor_type;location;lat;lon;timestamp;P1;durP1;ratioP1;P2;durP2;ratioP2
24637;SDS011;12773;50.162;8.548;2023-03-01T00:00:26;19.10;;;9.80;;
24637;SDS011;12773;50.162;8.548;2023-03-01T00:03:13;19.55;;;10.13;;
24637;SDS011;12773;50.162;8.548;2023-03-01T00:06:00;20.75;;;9.88;;
24637;SDS011;12773;50.162;8.548;2023-03-01T00:08:49;19.17;;;10.10;;
24637;SDS011;12773;50.162;8.548;2023-03-01T00:11:36;17.27;;;9.70;;
24637;SDS011;12773;50.162;8.548;2023-03-01T00:14:23;19.52;;;9.48;;
24637;SDS011;12773;50.162;8.548;2023-03-01T00:17:11;16.27;;;9.33;;
24637;SDS011;12773;50.162;8.548;2023-03-01T00:19:58;19.80;;;9.58;;
24637;SDS011;12773;50.162;8.548;2023-03-01T00:22:45;17.82;;;9.35;;
24637;SDS011;12773;50.162;8.548;2023-03-01T00:25:33;16.90;;;9.70;;
24637;SDS011;12773;50.162;8.548;2023-03-01T00:28:21;18.48;;;10.13;;
24637;SDS011;12773;50.162;8.548;2023-03-01T00:31:10;19.85;;;9.93;;
24637;SDS011;12773;50.162;8.548;2023-03-01T00:34:00;20.50;;;10.72;;
24637;SDS011;12773;50.162;8.548;2023-03-01T00:36:49;19.62;;;9.48;;
24637;SDS011;12773;50.162;8.548;2023-03-01T00:39:36;19.73;;;9.70;;
24637;SDS011;12773;50.162;8.548;2023-03-01T00:42:24;19.82;;;10.63;;
24637;SDS011;12773;50.162;8.548;2023-03-01T00:45:11;17.42;;;9.33;;
24637;SDS011;12773;50.162;8.548;2023-03-01T00:47:58;20.02;;;10.18;;
24637;SDS011;12773;50.162;8.548;2023-03-01T00:50:45;19.80;;;10.00;;
24637;SDS011;12773;50.162;8.548;2023-03-01T00:53:33;18.77;;;9.85;;
24637;SDS011;12773;50.162;8.548;2023-03-01T00:56:21;20.43;;;10.38;;
24637;SDS011;12773;50.162;8.548;2023-03-01T00:59:08;19.87;;;10.32;;
24637;SDS011;12773;50.162;8.548;2023-03-01T01:01:55;18.65;;;10.45;;
24637;SDS011;12773;50.162;8.548;2023-03-01T01:04:42;20.95;;;10.10;;
24637;SDS011;12773;50.162;8.548;2023-03-01T01:07:30;18.45;;;9.40;;
24637;SDS011;12773;50.162;8.548;2023-03-01T01:10:17;20.95;;;10.35;;
24637;SDS011;12773;50.162;8.548;2023-03-01T01:13:04;22.58;;;10.70;;
24637;SDS011;12773;50.162;8.548;2023-03-01T01:15:51;20.02;;;10.10;;
24637;SDS011;12773;50.162;8.548;2023-03-01T01:18:39;21.07;;;9.63;;
24637;SDS011;12773;50.162;8.548;2023-03-01T01:21:26;19.50;;;10.30;;
24637;SDS011;12773;50.162;8.548;2023-03-01T01:24:14;21.15;;;11.15;;
24637;SDS011;12773;50.162;8.548;2023-03-01T01:27:02;18.30;;;10.13;;
24637;SDS011;12773;50.162;8.548;2023-03-01T01:29:49;19.62;;;9.75;;
24637;SDS011;12773;50.162;8.548;2023-03-01T01:32:38;18.35;;;10.32;;
24637;SDS011;12773;50.162;8.548;2023-03-01T01:35:25;21.37;;;11.15;;
24637;SDS011;12773;50.162;8.548;2023-03-01T01:38:14;19.73;;;10.30;;
24637;SDS011;12773;50.162;8.548;2023-03-01T01:41:01;22.82;;;10.35;;
24637;SDS011;12773;50.162;8.548;2023-03-01T01:44:34;22.17;;;10.80;;
24637;SDS011;12773;50.162;8.548;2023-03-01T01:47:10;18.57;;;10.03;;
24637;SDS011;12773;50.162;8.548;2023-03-01T01:50:00;20.97;;;10.18;;
24637;SDS011;12773;50.162;8.548;2023-03-01T01:52:49;22.37;;;11.88;;
24637;SDS011;12773;50.162;8.548;2023-03-01T01:55:41;18.98;;;10.98;;
24637;SDS011;12773;50.162;8.548;2023-03-01T01:58:30;21.57;;;11.20;;
24637;SDS011;12773;50.162;8.548;2023-03-01T02:01:17;18.40;;;10.20;;
24637;SDS011;12773;50.162;8.548;2023-03-01T02:04:05;20.62;;;10.35;;
24637;SDS011;12773;50.162;8.548;2023-03-01T02:06:58;20.08;;;10.05;;
24637;SDS011;12773;50.162;8.548;2023-03-01T02:09:52;22.25;;;10.55;;
24637;SDS011;12773;50.162;8.548;2023-03-01T02:12:36;23.07;;;10.70;;
24637;SDS011;12773;50.162;8.548;2023-03-01T02:15:25;25.12;;;11.25;;
24637;SDS011;12773;50.162;8.548;2023-03-01T02:18:13;19.75;;;10.58;;
24637;SDS011;12773;50.162;8.548;2023-03-01T02:27:21;21.68;;;10.53;;
24637;SDS011;12773;50.162;8.548;2023-03-01T02:30:11;20.35;;;11.18;;
24637;SDS011;12773;50.162;8.548;2023-03-01T02:32:59;19.82;;;10.80;;
24637;SDS011;12773;50.162;8.548;2023-03-01T02:35:50;22.98;;;10.45;;
24637;SDS011;12773;50.162;8.548;2023-03-01T02:38:39;21.48;;;11.20;;
24637;SDS011;12773;50.162;8.548;2023-03-01T02:41:28;19.20;;;10.15;;
24637;SDS011;12773;50.162;8.548;2023-03-01T02:44:17;23.90;;;11.57;;
24637;SDS011;12773;50.162;8.548;2023-03-01T02:47:05;23.87;;;11.05;;
24637;SDS011;12773;50.162;8.548;2023-03-01T02:49:53;21.48;;;10.85;;
24637;SDS011;12773;50.162;8.548;2023-03-01T02:52:46;20.43;;;10.93;;
24637;SDS011;12773;50.162;8.548;2023-03-01T02:55:36;19.07;;;11.00;;
24637;SDS011;12773;50.162;8.548;2023-03-01T02:58:23;21.85;;;11.35;;
24637;SDS011;12773;50.162;8.548;2023-03-01T03:01:13;23.20;;;12.10;;
24637;SDS011;12773;50.162;8.548;2023-03-01T03:04:01;19.17;;;11.48;;
24637;SDS011;12773;50.162;8.548;2023-03-01T03:06:52;19.30;;;10.85;;
24637;SDS011;12773;50.162;8.548;2023-03-01T03:09:39;23.22;;;12.33;;
24637;SDS011;12773;50.162;8.548;2023-03-01T03:12:26;22.80;;;11.80;;
24637;SDS011;12773;50.162;8.548;2023-03-01T03:15:13;24.05;;;11.60;;
24637;SDS011;12773;50.162;8.548;2023-03-01T03:18:01;21.70;;;11.20;;
24637;SDS011;12773;50.162;8.548;2023-03-01T03:20:50;26.48;;;12.50;;
24637;SDS011;12773;50.162;8.548;2023-03-01T03:23:39;23.12;;;12.15;;
24637;SDS011;12773;50.162;8.548;2023-03-01T03:26:26;22.45;;;11.15;;
24637;SDS011;12773;50.162;8.548;2023-03-01T03:29:14;24.98;;;11.75;;
24637;SDS011;12773;50.162;8.548;2023-03-01T03:32:01;24.77;;;11.73;;
24637;SDS011;12773;50.162;8.548;2023-03-01T03:34:49;20.80;;;11.18;;
24637;SDS011;12773;50.162;8.548;2023-03-01T03:37:41;25.62;;;11.45;;
24637;SDS011;12773;50.162;8.548;2023-03-01T03:40:47;21.12;;;11.78;;
24637;SDS011;12773;50.162;8.548;2023-03-01T03:43:37;24.47;;;11.63;;
24637;SDS011;12773;50.162;8.548;2023-03-01T03:46:25;29.12;;;12.63;;
24637;SDS011;12773;50.162;8.548;2023-03-01T03:49:13;26.57;;;11.93;;
24637;SDS011;12773;50.162;8.548;2023-03-01T03:52:00;25.77;;;13.20;;
24637;SDS011;12773;50.162;8.548;2023-03-01T03:54:47;23.35;;;11.80;;
24637;SDS011;12773;50.162;8.548;2023-03-01T03:57:34;24.02;;;12.20;;
24637;SDS011;12773;50.162;8.548;2023-03-01T04:00:22;25.95;;;13.20;;
24637;SDS011;12773;50.162;8.548;2023-03-01T04:03:10;25.95;;;12.65;;
24637;SDS011;12773;50.162;8.548;2023-03-01T04:05:59;21.80;;;12.00;;
24637;SDS011;12773;50.162;8.548;2023-03-01T04:08:48;23.62;;;12.50;;
24637;SDS011;12773;50.162;8.548;2023-03-01T04:11:36;23.00;;;11.63;;
24637;SDS011;12773;50.162;8.548;2023-03-01T04:14:24;27.00;;;13.28;;
24637;SDS011;12773;50.162;8.548;2023-03-01T04:17:11;29.18;;;13.68;;
24637;SDS011;12773;50.162;8.548;2023-03-01T04:19:58;23.00;;;12.45;;
24637;SDS011;12773;50.162;8.548;2023-03-01T04:22:45;26.42;;;12.65;;
24637;SDS011;12773;50.162;8.548;2023-03-01T04:25:33;24.23;;;11.93;;
24637;SDS011;12773;50.162;8.548;2023-03-01T04:28:24;25.02;;;12.98;;
24637;SDS011;12773;50.162;8.548;2023-03-01T04:31:16;22.85;;;11.88;;
24637;SDS011;12773;50.162;8.548;2023-03-01T04:34:07;24.75;;;13.28;;
24637;SDS011;12773;50.162;8.548;2023-03-01T04:36:54;25.32;;;12.30;;
24637;SDS011;12773;50.162;8.548;2023-03-01T04:39:41;27.37;;;12.58;;
24637;SDS011;12773;50.162;8.548;2023-03-01T04:42:32;27.13;;;13.80;;
24637;SDS011;12773;50.162;8.548;2023-03-01T04:45:19;24.40;;;12.88;;
24637;SDS011;12773;50.162;8.548;2023-03-01T04:48:06;25.60;;;12.60;;
24637;SDS011;12773;50.162;8.548;2023-03-01T04:50:54;26.77;;;13.45;;
24637;SDS011;12773;50.162;8.548;2023-03-01T04:53:41;22.00;;;11.15;;
24637;SDS011;12773;50.162;8.548;2023-03-01T04:56:28;23.92;;;12.35;;
24637;SDS011;12773;50.162;8.548;2023-03-01T04:59:16;24.70;;;13.28;;
24637;SDS011;12773;50.162;8.548;2023-03-01T05:02:03;25.32;;;12.10;;
24637;SDS011;12773;50.162;8.548;2023-03-01T05:04:51;23.65;;;12.03;;
24637;SDS011;12773;50.162;8.548;2023-03-01T05:07:39;25.05;;;12.78;;
24637;SDS011;12773;50.162;8.548;2023-03-01T05:10:28;23.87;;;12.63;;
24637;SDS011;12773;50.162;8.548;2023-03-01T05:13:18;24.70;;;12.47;;
24637;SDS011;12773;50.162;8.548;2023-03-01T05:16:07;23.30;;;11.38;;
24637;SDS011;12773;50.162;8.548;2023-03-01T05:18:58;23.07;;;12.07;;
24637;SDS011;12773;50.162;8.548;2023-03-01T05:21:46;28.67;;;12.73;;
24637;SDS011;12773;50.162;8.548;2023-03-01T05:24:52;24.10;;;12.25;;
24637;SDS011;12773;50.162;8.548;2023-03-01T05:27:39;23.77;;;11.88;;
24637;SDS011;12773;50.162;8.548;2023-03-01T05:30:26;22.62;;;12.23;;
24637;SDS011;12773;50.162;8.548;2023-03-01T05:33:13;24.27;;;11.80;;
24637;SDS011;12773;50.162;8.548;2023-03-01T05:36:01;22.67;;;11.38;;
24637;SDS011;12773;50.162;8.548;2023-03-01T05:38:48;21.45;;;11.50;;
24637;SDS011;12773;50.162;8.548;2023-03-01T05:41:36;29.35;;;11.93;;
24637;SDS011;12773;50.162;8.548;2023-03-01T05:44:23;25.55;;;12.03;;
24637;SDS011;12773;50.162;8.548;2023-03-01T05:47:11;21.62;;;12.30;;
24637;SDS011;12773;50.162;8.548;2023-03-01T05:49:58;22.58;;;11.73;;
24637;SDS011;12773;50.162;8.548;2023-03-01T05:52:46;32.20;;;12.40;;
24637;SDS011;12773;50.162;8.548;2023-03-01T05:55:34;23.55;;;11.45;;
24637;SDS011;12773;50.162;8.548;2023-03-01T05:58:22;23.47;;;12.00;;
24637;SDS011;12773;50.162;8.548;2023-03-01T06:01:12;22.05;;;11.88;;
24637;SDS011;12773;50.162;8.548;2023-03-01T06:03:59;21.48;;;11.63;;
24637;SDS011;12773;50.162;8.548;2023-03-01T06:06:47;22.77;;;12.20;;
24637;SDS011;12773;50.162;8.548;2023-03-01T06:09:34;23.92;;;11.38;;
24637;SDS011;12773;50.162;8.548;2023-03-01T06:12:22;22.45;;;11.38;;
24637;SDS011;12773;50.162;8.548;2023-03-01T06:15:09;24.67;;;11.57;;
24637;SDS011;12773;50.162;8.548;2023-03-01T06:17:58;25.57;;;11.68;;
24637;SDS011;12773;50.162;8.548;2023-03-01T06:20:51;24.72;;;12.15;;
24637;SDS011;12773;50.162;8.548;2023-03-01T06:23:41;22.35;;;11.65;;
24637;SDS011;12773;50.162;8.548;2023-03-01T06:26:28;23.47;;;11.50;;
24637;SDS011;12773;50.162;8.548;2023-03-01T06:29:15;28.73;;;10.75;;
24637;SDS011;12773;50.162;8.548;2023-03-01T06:32:03;26.93;;;12.00;;
24637;SDS011;12773;50.162;8.548;2023-03-01T06:34:50;23.15;;;11.40;;
24637;SDS011;12773;50.162;8.548;2023-03-01T06:37:37;24.55;;;11.28;;
24637;SDS011;12773;50.162;8.548;2023-03-01T06:40:25;21.48;;;11.33;;
24637;SDS011;12773;50.162;8.548;2023-03-01T06:43:12;25.62;;;11.60;;
24637;SDS011;12773;50.162;8.548;2023-03-01T06:46:02;23.45;;;11.38;;
24637;SDS011;12773;50.162;8.548;2023-03-01T06:48:53;26.02;;;12.58;;
24637;SDS011;12773;50.162;8.548;2023-03-01T06:51:40;22.48;;;10.95;;
24637;SDS011;12773;50.162;8.548;2023-03-01T06:54:28;23.05;;;11.38;;
24637;SDS011;12773;50.162;8.548;2023-03-01T06:57:15;25.17;;;12.40;;
24637;SDS011;12773;50.162;8.548;2023-03-01T07:00:03;25.15;;;11.83;;
24637;SDS011;12773;50.162;8.548;2023-03-01T07:02:52;24.55;;;11.97;;
24637;SDS011;12773;50.162;8.548;2023-03-01T07:05:40;20.10;;;9.98;;
24637;SDS011;12773;50.162;8.548;2023-03-01T07:08:27;24.45;;;11.78;;
24637;SDS011;12773;50.162;8.548;2023-03-01T07:11:15;22.75;;;10.53;;
24637;SDS011;12773;50.162;8.548;2023-03-01T07:14:02;23.83;;;12.05;;
24637;SDS011;12773;50.162;8.548;2023-03-01T07:16:51;22.67;;;12.25;;
24637;SDS011;12773;50.162;8.548;2023-03-01T07:19:39;23.62;;;11.45;;
24637;SDS011;12773;50.162;8.548;2023-03-01T07:22:26;22.98;;;11.60;;
24637;SDS011;12773;50.162;8.548;2023-03-01T07:25:13;24.98;;;11.08;;
24637;SDS011;12773;50.162;8.548;2023-03-01T07:28:00;21.37;;;11.50;;
24637;SDS011;12773;50.162;8.548;2023-03-01T07:30:48;26.35;;;11.93;;
24637;SDS011;12773;50.162;8.548;2023-03-01T07:33:35;24.63;;;12.45;;
24637;SDS011;12773;50.162;8.548;2023-03-01T07:36:22;25.10;;;11.80;;
24637;SDS011;12773;50.162;8.548;2023-03-01T07:39:11;22.50;;;11.73;;
24637;SDS011;12773;50.162;8.548;2023-03-01T07:41:58;19.60;;;11.50;;
24637;SDS011;12773;50.162;8.548;2023-03-01T07:44:46;24.63;;;12.33;;
24637;SDS011;12773;50.162;8.548;2023-03-01T07:47:34;24.70;;;11.90;;
24637;SDS011;12773;50.162;8.548;2023-03-01T07:50:22;24.05;;;11.22;;
24637;SDS011;12773;50.162;8.548;2023-03-01T07:53:09;22.00;;;12.05;;
24637;SDS011;12773;50.162;8.548;2023-03-01T07:56:00;23.20;;;11.10;;
24637;SDS011;12773;50.162;8.548;2023-03-01T07:58:49;21.20;;;11.10;;
24637;SDS011;12773;50.162;8.548;2023-03-01T08:01:36;20.32;;;10.78;;
24637;SDS011;12773;50.162;8.548;2023-03-01T08:04:24;25.88;;;11.60;;
24637;SDS011;12773;50.162;8.548;2023-03-01T08:07:12;23.85;;;11.70;;
24637;SDS011;12773;50.162;8.548;2023-03-01T08:09:59;24.30;;;11.38;;
24637;SDS011;12773;50.162;8.548;2023-03-01T08:12:46;22.93;;;11.60;;
24637;SDS011;12773;50.162;8.548;2023-03-01T08:15:34;23.27;;;11.88;;
24637;SDS011;12773;50.162;8.548;2023-03-01T08:18:21;23.62;;;12.82;;
24637;SDS011;12773;50.162;8.548;2023-03-01T08:21:15;21.82;;;11.78;;
24637;SDS011;12773;50.162;8.548;2023-03-01T08:24:04;23.12;;;11.93;;
24637;SDS011;12773;50.162;8.548;2023-03-01T08:26:53;24.63;;;12.33;;
24637;SDS011;12773;50.162;8.548;2023-03-01T08:29:41;27.13;;;12.40;;
24637;SDS011;12773;50.162;8.548;2023-03-01T08:32:28;23.85;;;12.35;;
24637;SDS011;12773;50.162;8.548;2023-03-01T08:35:15;23.52;;;11.30;;
24637;SDS011;12773;50.162;8.548;2023-03-01T08:38:03;21.55;;;11.40;;
24637;SDS011;12773;50.162;8.548;2023-03-01T08:40:50;24.40;;;11.18;;
24637;SDS011;12773;50.162;8.548;2023-03-01T08:43:37;20.90;;;11.05;;
24637;SDS011;12773;50.162;8.548;2023-03-01T08:46:25;24.32;;;11.00;;
24637;SDS011;12773;50.162;8.548;2023-03-01T08:49:15;25.88;;;11.65;;
24637;SDS011;12773;50.162;8.548;2023-03-01T08:52:03;24.70;;;11.33;;
24637;SDS011;12773;50.162;8.548;2023-03-01T08:54:50;25.68;;;12.10;;
24637;SDS011;12773;50.162;8.548;2023-03-01T08:57:38;25.17;;;10.85;;
24637;SDS011;12773;50.162;8.548;2023-03-01T09:00:25;21.52;;;11.63;;
24637;SDS011;12773;50.162;8.548;2023-03-01T09:03:13;21.68;;;11.75;;
24637;SDS011;12773;50.162;8.548;2023-03-01T09:06:00;23.35;;;12.43;;
24637;SDS011;12773;50.162;8.548;2023-03-01T09:08:49;26.55;;;12.28;;
24637;SDS011;12773;50.162;8.548;2023-03-01T09:11:37;26.20;;;12.13;;
24637;SDS011;12773;50.162;8.548;2023-03-01T09:14:24;19.92;;;10.68;;
24637;SDS011;12773;50.162;8.548;2023-03-01T09:17:11;23.02;;;11.08;;
24637;SDS011;12773;50.162;8.548;2023-03-01T09:19:58;20.45;;;10.72;;
24637;SDS011;12773;50.162;8.548;2023-03-01T09:22:46;21.60;;;11.20;;
24637;SDS011;12773;50.162;8.548;2023-03-01T09:25:33;22.87;;;12.23;;
24637;SDS011;12773;50.162;8.548;2023-03-01T09:28:22;23.10;;;11.68;;
24637;SDS011;12773;50.162;8.548;2023-03-01T09:31:11;21.15;;;12.05;;
24637;SDS011;12773;50.162;8.548;2023-03-01T09:33:59;21.05;;;11.93;;
24637;SDS011;12773;50.162;8.548;2023-03-01T09:36:46;23.57;;;11.65;;
24637;SDS011;12773;50.162;8.548;2023-03-01T09:39:34;22.00;;;11.08;;
24637;SDS011;12773;50.162;8.548;2023-03-01T09:42:21;21.15;;;11.35;;
24637;SDS011;12773;50.162;8.548;2023-03-01T09:45:14;24.40;;;11.95;;
24637;SDS011;12773;50.162;8.548;2023-03-01T09:48:07;22.02;;;11.80;;
24637;SDS011;12773;50.162;8.548;2023-03-01T09:50:56;23.42;;;12.33;;
24637;SDS011;12773;50.162;8.548;2023-03-01T09:53:44;24.05;;;12.18;;
24637;SDS011;12773;50.162;8.548;2023-03-01T09:59:31;23.02;;;12.07;;
24637;SDS011;12773;50.162;8.548;2023-03-01T10:02:39;23.52;;;12.53;;
24637;SDS011;12773;50.162;8.548;2023-03-01T10:08:50;26.17;;;11.68;;
24637;SDS011;12773;50.162;8.548;2023-03-01T10:11:40;20.68;;;11.05;;
24637;SDS011;12773;50.162;8.548;2023-03-01T10:17:30;23.60;;;11.70;;
24637;SDS011;12773;50.162;8.548;2023-03-01T10:20:18;25.85;;;12.30;;
24637;SDS011;12773;50.162;8.548;2023-03-01T10:23:08;23.25;;;11.83;;
24637;SDS011;12773;50.162;8.548;2023-03-01T10:25:58;21.82;;;11.10;;
24637;SDS011;12773;50.162;8.548;2023-03-01T10:28:59;24.82;;;11.93;;
24637;SDS011;12773;50.162;8.548;2023-03-01T10:31:50;21.35;;;11.95;;
24637;SDS011;12773;50.162;8.548;2023-03-01T10:34:39;21.07;;;10.82;;
24637;SDS011;12773;50.162;8.548;2023-03-01T10:37:26;20.52;;;11.93;;
24637;SDS011;12773;50.162;8.548;2023-03-01T10:40:15;20.92;;;10.90;;
24637;SDS011;12773;50.162;8.548;2023-03-01T10:43:04;21.33;;;11.60;;
24637;SDS011;12773;50.162;8.548;2023-03-01T10:45:52;26.05;;;11.90;;
24637;SDS011;12773;50.162;8.548;2023-03-01T10:48:40;20.48;;;11.63;;
24637;SDS011;12773;50.162;8.548;2023-03-01T10:51:27;21.80;;;11.18;;
24637;SDS011;12773;50.162;8.548;2023-03-01T10:54:22;21.00;;;11.45;;
24637;SDS011;12773;50.162;8.548;2023-03-01T10:57:28;23.38;;;12.18;;
24637;SDS011;12773;50.162;8.548;2023-03-01T11:00:24;19.07;;;10.72;;
24637;SDS011;12773;50.162;8.548;2023-03-01T11:03:13;21.80;;;11.63;;
24637;SDS011;12773;50.162;8.548;2023-03-01T11:09:13;21.37;;;10.65;;
24637;SDS011;12773;50.162;8.548;2023-03-01T11:12:03;20.32;;;11.40;;
24637;SDS011;12773;50.162;8.548;2023-03-01T11:14:53;17.87;;;10.08;;
24637;SDS011;12773;50.162;8.548;2023-03-01T11:17:42;17.77;;;10.43;;
24637;SDS011;12773;50.162;8.548;2023-03-01T11:20:32;19.85;;;10.90;;
24637;SDS011;12773;50.162;8.548;2023-03-01T11:23:24;18.25;;;9.53;;
24637;SDS011;12773;50.162;8.548;2023-03-01T11:26:14;20.82;;;10.28;;
24637;SDS011;12773;50.162;8.548;2023-03-01T11:29:04;18.10;;;10.25;;
24637;SDS011;12773;50.162;8.548;2023-03-01T11:31:54;22.75;;;10.38;;
24637;SDS011;12773;50.162;8.548;2023-03-01T11:35:30;17.73;;;10.10;;
24637;SDS011;12773;50.162;8.548;2023-03-01T11:44:10;15.15;;;8.90;;
24637;SDS011;12773;50.162;8.548;2023-03-01T11:47:13;20.37;;;10.70;;
24637;SDS011;12773;50.162;8.548;2023-03-01T11:53:30;19.20;;;9.68;;
24637;SDS011;12773;50.162;8.548;2023-03-01T11:56:41;14.58;;;8.43;;
24637;SDS011;12773;50.162;8.548;2023-03-01T12:05:51;15.03;;;8.90;;
24637;SDS011;12773;50.162;8.548;2023-03-01T12:24:33;15.80;;;9.13;;
24637;SDS011;12773;50.162;8.548;2023-03-01T12:33:31;14.80;;;8.80;;
24637;SDS011;12773;50.162;8.548;2023-03-01T12:39:37;19.87;;;8.83;;
24637;SDS011;12773;50.162;8.548;2023-03-01T12:42:41;16.95;;;9.00;;
24637;SDS011;12773;50.162;8.548;2023-03-01T12:45:51;20.32;;;8.33;;
24637;SDS011;12773;50.162;8.548;2023-03-01T12:51:45;15.38;;;8.38;;
24637;SDS011;12773;50.162;8.548;2023-03-01T12:54:46;15.72;;;8.33;;
24637;SDS011;12773;50.162;8.548;2023-03-01T12:57:42;13.95;;;8.35;;
24637;SDS011;12773;50.162;8.548;2023-03-01T13:00:39;16.90;;;9.07;;
24637;SDS011;12773;50.162;8.548;2023-03-01T13:03:35;16.80;;;8.23;;
24637;SDS011;12773;50.162;8.548;2023-03-01T13:09:51;16.73;;;8.58;;
24637;SDS011;12773;50.162;8.548;2023-03-01T13:15:50;14.95;;;7.97;;
24637;SDS011;12773;50.162;8.548;2023-03-01T13:18:38;13.83;;;7.65;;
24637;SDS011;12773;50.162;8.548;2023-03-01T13:21:30;18.65;;;8.20;;
24637;SDS011;12773;50.162;8.548;2023-03-01T13:24:25;13.38;;;7.30;;
24637;SDS011;12773;50.162;8.548;2023-03-01T13:30:55;13.83;;;7.12;;
24637;SDS011;12773;50.162;8.548;2023-03-01T13:33:33;13.80;;;7.62;;
24637;SDS011;12773;50.162;8.548;2023-03-01T13:42:31;13.78;;;7.15;;
24637;SDS011;12773;50.162;8.548;2023-03-01T13:45:38;16.77;;;9.00;;
24637;SDS011;12773;50.162;8.548;2023-03-01T13:48:27;18.12;;;8.28;;
24637;SDS011;12773;50.162;8.548;2023-03-01T13:51:19;13.70;;;8.03;;
24637;SDS011;12773;50.162;8.548;2023-03-01T13:54:10;16.62;;;7.78;;
24637;SDS011;12773;50.162;8.548;2023-03-01T13:57:00;18.02;;;7.97;;
24637;SDS011;12773;50.162;8.548;2023-03-01T13:59:48;13.68;;;7.60;;
24637;SDS011;12773;50.162;8.548;2023-03-01T14:02:35;15.45;;;8.03;;
24637;SDS011;12773;50.162;8.548;2023-03-01T14:05:22;12.90;;;7.42;;
24637;SDS011;12773;50.162;8.548;2023-03-01T14:08:24;12.85;;;7.55;;
24637;SDS011;12773;50.162;8.548;2023-03-01T14:14:40;14.47;;;7.28;;
24637;SDS011;12773;50.162;8.548;2023-03-01T14:17:37;13.80;;;8.25;;
24637;SDS011;12773;50.162;8.548;2023-03-01T14:20:26;14.15;;;8.23;;
24637;SDS011;12773;50.162;8.548;2023-03-01T14:23:15;13.55;;;7.67;;
24637;SDS011;12773;50.162;8.548;2023-03-01T14:26:05;14.15;;;7.22;;
24637;SDS011;12773;50.162;8.548;2023-03-01T14:28:54;15.25;;;8.10;;
24637;SDS011;12773;50.162;8.548;2023-03-01T14:31:42;16.55;;;7.62;;
24637;SDS011;12773;50.162;8.548;2023-03-01T14:34:31;15.95;;;7.85;;
24637;SDS011;12773;50.162;8.548;2023-03-01T14:37:32;18.25;;;8.20;;
24637;SDS011;12773;50.162;8.548;2023-03-01T14:40:22;17.15;;;7.17;;
24637;SDS011;12773;50.162;8.548;2023-03-01T14:43:11;15.20;;;7.33;;
24637;SDS011;12773;50.162;8.548;2023-03-01T14:46:00;12.58;;;6.97;;
24637;SDS011;12773;50.162;8.548;2023-03-01T14:48:56;14.78;;;7.25;;
24637;SDS011;12773;50.162;8.548;2023-03-01T14:51:46;15.43;;;7.53;;
24637;SDS011;12773;50.162;8.548;2023-03-01T14:54:40;13.13;;;7.72;;
24637;SDS011;12773;50.162;8.548;2023-03-01T14:57:28;14.85;;;7.72;;
24637;SDS011;12773;50.162;8.548;2023-03-01T15:00:21;13.70;;;7.60;;
24637;SDS011;12773;50.162;8.548;2023-03-01T15:03:14;18.55;;;7.87;;
24637;SDS011;12773;50.162;8.548;2023-03-01T15:06:04;14.80;;;7.30;;
24637;SDS011;12773;50.162;8.548;2023-03-01T15:08:53;13.08;;;6.65;;
24637;SDS011;12773;50.162;8.548;2023-03-01T15:11:42;13.38;;;6.65;;
24637;SDS011;12773;50.162;8.548;2023-03-01T15:14:40;12.10;;;7.05;;
24637;SDS011;12773;50.162;8.548;2023-03-01T15:17:37;13.28;;;6.58;;
24637;SDS011;12773;50.162;8.548;2023-03-01T15:20:23;12.68;;;6.87;;
24637;SDS011;12773;50.162;8.548;2023-03-01T15:23:19;13.93;;;7.20;;
24637;SDS011;12773;50.162;8.548;2023-03-01T15:29:16;13.10;;;7.20;;
24637;SDS011;12773;50.162;8.548;2023-03-01T15:32:06;8.03;;;4.15;;
24637;SDS011;12773;50.162;8.548;2023-03-01T15:38:33;13.43;;;7.33;;
24637;SDS011;12773;50.162;8.548;2023-03-01T15:41:25;13.90;;;7.17;;
24637;SDS011;12773;50.162;8.548;2023-03-01T15:44:27;13.68;;;7.35;;
24637;SDS011;12773;50.162;8.548;2023-03-01T15:47:25;14.90;;;7.60;;
24637;SDS011;12773;50.162;8.548;2023-03-01T15:50:22;12.40;;;7.25;;
24637;SDS011;12773;50.162;8.548;2023-03-01T15:53:12;16.48;;;7.97;;
24637;SDS011;12773;50.162;8.548;2023-03-01T15:56:01;13.55;;;6.90;;
24637;SDS011;12773;50.162;8.548;2023-03-01T15:58:48;14.45;;;7.15;;
24637;SDS011;12773;50.162;8.548;2023-03-01T16:01:35;16.75;;;7.65;;
24637;SDS011;12773;50.162;8.548;2023-03-01T16:04:23;12.93;;;6.70;;
24637;SDS011;12773;50.162;8.548;2023-03-01T16:07:10;17.00;;;6.97;;
24637;SDS011;12773;50.162;8.548;2023-03-01T16:09:57;13.20;;;7.22;;
24637;SDS011;12773;50.162;8.548;2023-03-01T16:12:46;14.55;;;6.90;;
24637;SDS011;12773;50.162;8.548;2023-03-01T16:15:33;13.80;;;7.12;;
24637;SDS011;12773;50.162;8.548;2023-03-01T16:18:20;22.13;;;7.65;;
24637;SDS011;12773;50.162;8.548;2023-03-01T16:21:10;13.35;;;7.30;;
24637;SDS011;12773;50.162;8.548;2023-03-01T16:24:00;15.45;;;7.92;;
24637;SDS011;12773;50.162;8.548;2023-03-01T16:26:48;12.78;;;6.87;;
24637;SDS011;12773;50.162;8.548;2023-03-01T16:29:35;16.12;;;7.28;;
24637;SDS011;12773;50.162;8.548;2023-03-01T16:32:22;14.20;;;6.87;;
24637;SDS011;12773;50.162;8.548;2023-03-01T16:35:10;13.22;;;7.42;;
24637;SDS011;12773;50.162;8.548;2023-03-01T16:37:59;15.83;;;7.67;;
24637;SDS011;12773;50.162;8.548;2023-03-01T16:40:47;17.02;;;7.53;;
24637;SDS011;12773;50.162;8.548;2023-03-01T16:43:36;15.13;;;7.35;;
24637;SDS011;12773;50.162;8.548;2023-03-01T16:46:29;14.43;;;7.87;;
24637;SDS011;12773;50.162;8.548;2023-03-01T16:49:13;12.85;;;6.85;;
24637;SDS011;12773;50.162;8.548;2023-03-01T16:52:00;15.98;;;7.17;;
24637;SDS011;12773;50.162;8.548;2023-03-01T16:54:47;14.43;;;6.75;;
24637;SDS011;12773;50.162;8.548;2023-03-01T16:57:34;14.95;;;7.60;;
24637;SDS011;12773;50.162;8.548;2023-03-01T17:00:23;14.98;;;7.60;;
24637;SDS011;12773;50.162;8.548;2023-03-01T17:03:11;17.23;;;7.47;;
24637;SDS011;12773;50.162;8.548;2023-03-01T17:06:10;12.05;;;6.65;;
24637;SDS011;12773;50.162;8.548;2023-03-01T17:08:56;15.18;;;6.75;;
24637;SDS011;12773;50.162;8.548;2023-03-01T17:11:44;14.53;;;7.90;;
24637;SDS011;12773;50.162;8.548;2023-03-01T17:14:31;19.40;;;8.23;;
24637;SDS011;12773;50.162;8.548;2023-03-01T17:17:19;13.32;;;7.62;;
24637;SDS011;12773;50.162;8.548;2023-03-01T17:20:07;13.55;;;7.08;;
24637;SDS011;12773;50.162;8.548;2023-03-01T17:22:55;15.98;;;7.92;;
24637;SDS011;12773;50.162;8.548;2023-03-01T17:25:43;12.98;;;6.92;;
24637;SDS011;12773;50.162;8.548;2023-03-01T17:28:31;16.67;;;8.38;;
24637;SDS011;12773;50.162;8.548;2023-03-01T17:31:20;15.58;;;7.67;;
24637;SDS011;12773;50.162;8.548;2023-03-01T17:34:07;17.50;;;7.67;;
24637;SDS011;12773;50.162;8.548;2023-03-01T17:36:54;21.97;;;7.42;;
24637;SDS011;12773;50.162;8.548;2023-03-01T17:39:42;12.60;;;6.95;;
24637;SDS011;12773;50.162;8.548;2023-03-01T17:42:29;16.15;;;7.17;;
24637;SDS011;12773;50.162;8.548;2023-03-01T17:45:16;13.90;;;7.28;;
24637;SDS011;12773;50.162;8.548;2023-03-01T17:48:04;16.70;;;7.90;;
24637;SDS011;12773;50.162;8.548;2023-03-01T17:50:52;17.27;;;7.95;;
24637;SDS011;12773;50.162;8.548;2023-03-01T17:53:40;16.95;;;8.88;;
24637;SDS011;12773;50.162;8.548;2023-03-01T17:56:27;18.80;;;8.88;;
24637;SDS011;12773;50.162;8.548;2023-03-01T17:59:16;20.82;;;9.30;;
24637;SDS011;12773;50.162;8.548;2023-03-01T18:02:03;18.42;;;8.78;;
24637;SDS011;12773;50.162;8.548;2023-03-01T18:04:51;16.57;;;8.50;;